createdAt,value
2018-07-11T00:01:18.863Z,14.71
2018-07-11T00:03:53.535Z,14.69
2018-07-11T00:06:28.900Z,14.72
2018-07-11T00:09:02.008Z,14.72
2018-07-11T00:11:32.042Z,14.70
2018-07-11T00:14:03.934Z,14.61
2018-07-11T00:16:37.550Z,14.54
2018-07-11T00:19:09.216Z,14.46
2018-07-11T00:21:42.193Z,14.30
2018-07-11T00:24:12.784Z,14.33
2018-07-11T00:26:45.721Z,14.25
2018-07-11T00:29:20.344Z,14.29
2018-07-11T00:31:52.044Z,14.25
2018-07-11T00:34:22.134Z,14.24
2018-07-11T00:36:55.987Z,14.25
2018-07-11T00:39:27.513Z,14.27
2018-07-11T00:42:02.303Z,14.17
2018-07-11T00:44:36.230Z,14.15
2018-07-11T00:47:09.821Z,14.22
2018-07-11T00:49:43.677Z,14.28
2018-07-11T00:52:17.240Z,14.36
2018-07-11T00:54:49.388Z,14.34
2018-07-11T00:57:23.197Z,14.35
2018-07-11T00:59:59.260Z,14.29
2018-07-11T01:02:30.782Z,14.32
2018-07-11T01:05:00.833Z,14.31
2018-07-11T01:07:32.590Z,14.36
2018-07-11T01:10:02.575Z,14.25
2018-07-11T01:12:37.115Z,14.13
2018-07-11T01:15:09.002Z,14.17
2018-07-11T01:17:57.864Z,14.31
2018-07-11T01:20:30.932Z,14.22
2018-07-11T01:23:04.156Z,14.12
2018-07-11T01:25:36.065Z,14.24
2018-07-11T01:28:07.757Z,14.27
2018-07-11T01:30:40.756Z,14.15
2018-07-11T01:33:12.704Z,14.16
2018-07-11T01:35:46.983Z,14.17
2018-07-11T01:38:18.703Z,14.06
2018-07-11T01:40:52.371Z,13.96
2018-07-11T01:43:23.886Z,13.92
2018-07-11T01:45:56.818Z,13.80
2018-07-11T01:48:29.842Z,13.72
2018-07-11T01:51:01.545Z,13.74
2018-07-11T01:53:33.083Z,13.72
2018-07-11T01:56:04.664Z,13.69
2018-07-11T01:58:37.836Z,13.59
2018-07-11T02:01:11.085Z,13.60
2018-07-11T02:03:43.125Z,13.55
2018-07-11T02:06:14.624Z,13.47
2018-07-11T02:08:46.311Z,13.39
2018-07-11T02:11:17.820Z,13.32
2018-07-11T02:13:49.473Z,13.28
2018-07-11T02:16:21.076Z,13.40
2018-07-11T02:18:52.474Z,13.32
2018-07-11T02:21:25.385Z,13.31
2018-07-11T02:23:58.722Z,13.32
2018-07-11T02:26:28.574Z,13.18
2018-07-11T02:29:04.136Z,13.10
2018-07-11T02:31:37.677Z,13.10
2018-07-11T02:34:10.842Z,13.01
2018-07-11T02:36:42.172Z,12.92
2018-07-11T02:39:15.632Z,12.97
2018-07-11T02:41:47.447Z,13.16
2018-07-11T02:44:21.597Z,13.18
2018-07-11T02:47:12.205Z,13.27
2018-07-11T02:49:44.602Z,13.28
2018-07-11T02:52:15.913Z,13.29
2018-07-11T02:54:48.653Z,13.28
2018-07-11T02:57:22.392Z,13.34
2018-07-11T02:59:55.756Z,13.26
2018-07-11T03:02:27.974Z,13.34
2018-07-11T03:04:59.065Z,13.40
2018-07-11T03:07:30.848Z,13.42
2018-07-11T03:10:02.202Z,13.59
2018-07-11T03:12:35.484Z,13.65
2018-07-11T03:15:10.458Z,13.72
2018-07-11T03:17:42.732Z,13.69
2018-07-11T03:20:16.246Z,13.56
2018-07-11T03:22:46.422Z,13.46
2018-07-11T03:25:20.854Z,13.36
2018-07-11T03:27:50.847Z,13.31
2018-07-11T03:30:24.015Z,13.28
2018-07-11T03:32:57.057Z,13.17
2018-07-11T03:35:28.582Z,13.14
2018-07-11T03:38:00.268Z,13.13
2018-07-11T03:40:33.952Z,13.19
2018-07-11T03:43:07.363Z,13.15
2018-07-11T03:45:40.571Z,13.14
2018-07-11T03:48:12.122Z,13.14
2018-07-11T03:50:44.343Z,13.19
2018-07-11T03:53:16.262Z,13.40
2018-07-11T03:55:47.975Z,13.48
2018-07-11T03:58:21.349Z,13.63
2018-07-11T04:00:52.666Z,13.76
2018-07-11T04:03:22.778Z,13.86
2018-07-11T04:05:56.039Z,13.99
2018-07-11T04:08:27.713Z,14.54
2018-07-11T04:11:00.943Z,15.19
2018-07-11T04:13:31.117Z,15.70
2018-07-11T04:16:05.622Z,16.12
2018-07-11T04:18:37.176Z,16.60
2018-07-11T04:21:09.547Z,16.99
2018-07-11T04:23:42.981Z,17.20
2018-07-11T04:26:16.448Z,17.67
2018-07-11T04:28:49.582Z,18.21
2018-07-11T04:31:24.282Z,18.50
2018-07-11T04:33:57.461Z,18.83
2018-07-11T04:36:31.995Z,18.73
2018-07-11T04:39:03.539Z,19.38
2018-07-11T04:41:34.931Z,19.50
2018-07-11T04:44:06.514Z,19.59
2018-07-11T04:46:37.308Z,19.75
2018-07-11T04:49:10.760Z,20.45
2018-07-11T04:51:42.616Z,20.70
2018-07-11T04:54:14.115Z,20.53
2018-07-11T04:56:45.748Z,21.55
2018-07-11T04:59:18.961Z,21.72
2018-07-11T05:01:48.929Z,21.24
2018-07-11T05:04:19.913Z,21.41
2018-07-11T05:06:54.853Z,20.56
2018-07-11T05:09:27.888Z,20.48
2018-07-11T05:11:59.289Z,21.28
2018-07-11T05:14:31.433Z,21.08
2018-07-11T05:17:04.307Z,21.43
2018-07-11T05:19:35.627Z,21.77
2018-07-11T05:22:07.358Z,21.44
2018-07-11T05:24:38.862Z,21.39
2018-07-11T05:27:11.313Z,21.65
2018-07-11T05:29:44.756Z,22.77
2018-07-11T05:32:17.705Z,22.05
2018-07-11T05:34:50.560Z,22.73
2018-07-11T05:37:23.555Z,22.39
2018-07-11T05:39:55.162Z,22.54
2018-07-11T05:42:26.498Z,22.23
2018-07-11T05:44:59.354Z,23.06
2018-07-11T05:47:30.731Z,22.42
2018-07-11T05:50:03.512Z,23.07
2018-07-11T05:52:36.652Z,23.09
2018-07-11T05:55:09.538Z,23.23
2018-07-11T05:57:42.457Z,23.23
2018-07-11T06:00:15.334Z,22.78
2018-07-11T06:02:48.322Z,23.15
2018-07-11T06:05:21.381Z,22.79
2018-07-11T06:07:54.215Z,22.95
2018-07-11T06:10:27.177Z,22.34
2018-07-11T06:13:00.070Z,23.26
2018-07-11T06:15:34.367Z,23.36
2018-07-11T06:18:06.449Z,23.84
2018-07-11T06:20:36.391Z,23.41
2018-07-11T06:23:07.875Z,23.56
2018-07-11T06:25:38.030Z,24.53
2018-07-11T06:28:09.508Z,23.79
2018-07-11T06:30:43.883Z,24.56
2018-07-11T06:33:16.759Z,24.06
2018-07-11T06:35:49.080Z,24.91
2018-07-11T06:38:20.460Z,24.03
2018-07-11T06:40:55.701Z,24.12
2018-07-11T06:43:30.044Z,25.20
2018-07-11T06:46:03.560Z,24.02
2018-07-11T06:48:36.427Z,24.51
2018-07-11T06:51:09.389Z,24.31
2018-07-11T06:53:42.269Z,25.15
2018-07-11T06:56:12.384Z,24.90
2018-07-11T06:58:43.733Z,25.47
2018-07-11T07:01:18.382Z,25.70
2018-07-11T07:03:52.154Z,25.47
2018-07-11T07:06:25.123Z,25.46
2018-07-11T07:08:59.574Z,25.84
2018-07-11T07:11:30.939Z,26.61
2018-07-11T07:14:03.749Z,26.57
2018-07-11T07:16:37.062Z,26.96
2018-07-11T07:19:09.990Z,26.53
2018-07-11T07:21:42.916Z,26.32
2018-07-11T07:24:15.846Z,26.50
2018-07-11T07:26:49.128Z,26.41
2018-07-11T07:29:23.489Z,26.25
2018-07-11T07:31:56.629Z,26.18
2018-07-11T07:34:28.062Z,27.40
2018-07-11T07:37:00.903Z,27.12
2018-07-11T07:39:32.921Z,26.42
2018-07-11T07:42:04.454Z,27.67
2018-07-11T07:44:35.853Z,27.23
2018-07-11T07:47:07.730Z,28.44
2018-07-11T07:49:39.267Z,27.95
2018-07-11T07:52:13.633Z,27.72
2018-07-11T07:54:45.803Z,28.24
2018-07-11T07:57:15.696Z,26.75
2018-07-11T07:59:47.095Z,28.03
2018-07-11T08:02:19.182Z,27.93
2018-07-11T08:04:52.454Z,27.75
2018-07-11T08:07:25.277Z,26.27
2018-07-11T08:09:55.703Z,27.11
2018-07-11T08:12:27.142Z,27.37
2018-07-11T08:15:02.042Z,27.44
2018-07-11T08:17:36.205Z,27.04
2018-07-11T08:20:10.843Z,26.89
2018-07-11T08:23:08.237Z,25.88
2018-07-11T08:26:16.185Z,26.86
2018-07-11T08:29:27.159Z,27.51
2018-07-11T08:32:44.352Z,26.51
2018-07-11T08:35:52.910Z,24.98
2018-07-11T08:39:12.022Z,24.66
2018-07-11T08:42:22.225Z,25.20
2018-07-11T08:45:20.914Z,24.95
2018-07-11T08:48:21.308Z,24.87
2018-07-11T08:51:42.733Z,25.78
2018-07-11T08:54:37.898Z,25.24
2018-07-11T08:57:37.772Z,24.36
2018-07-11T09:00:34.890Z,24.97
2018-07-11T09:03:33.185Z,24.67
2018-07-11T09:06:38.201Z,25.24
2018-07-11T09:09:57.466Z,24.75
2018-07-11T09:13:05.518Z,26.12
2018-07-11T09:16:00.289Z,27.26
2018-07-11T09:19:15.948Z,27.44
2018-07-11T09:22:16.791Z,27.20
2018-07-11T09:24:54.024Z,26.19
2018-07-11T09:27:27.016Z,25.53
2018-07-11T09:29:58.663Z,24.14
2018-07-11T09:32:30.291Z,24.68
2018-07-11T09:35:01.865Z,24.84
2018-07-11T09:37:34.871Z,25.09
2018-07-11T09:40:06.200Z,24.87
2018-07-11T09:42:38.664Z,24.63
2018-07-11T09:45:09.565Z,24.67
2018-07-11T09:47:43.881Z,24.67
2018-07-11T09:50:18.467Z,24.49
2018-07-11T09:52:51.426Z,24.04
2018-07-11T09:55:24.414Z,24.11
2018-07-11T09:57:57.606Z,24.14
2018-07-11T10:00:47.990Z,24.79
2018-07-11T10:03:20.079Z,24.20
2018-07-11T10:05:51.668Z,23.99
2018-07-11T10:08:24.562Z,23.83
2018-07-11T10:10:57.550Z,23.83
2018-07-11T10:13:29.041Z,24.10
2018-07-11T10:16:01.863Z,24.12
2018-07-11T10:18:34.770Z,23.99
2018-07-11T10:21:05.556Z,24.28
2018-07-11T10:23:40.681Z,23.76
2018-07-11T10:26:13.655Z,24.00
2018-07-11T10:28:44.395Z,23.57
2018-07-11T10:31:17.945Z,23.28
2018-07-11T10:33:51.098Z,23.32
2018-07-11T10:36:24.109Z,23.52
2018-07-11T10:38:57.402Z,23.17
2018-07-11T10:41:30.328Z,23.48
2018-07-11T10:44:03.228Z,23.85
2018-07-11T10:46:37.708Z,26.05
2018-07-11T10:49:09.044Z,26.50
2018-07-11T10:51:42.167Z,27.08
2018-07-11T10:54:15.513Z,26.20
2018-07-11T10:56:49.062Z,26.14
2018-07-11T10:59:22.010Z,26.02
2018-07-11T11:01:56.711Z,25.14
2018-07-11T11:04:31.027Z,25.02
2018-07-11T11:07:01.057Z,25.40
2018-07-11T11:09:33.818Z,26.16
2018-07-11T11:12:06.957Z,26.22
2018-07-11T11:14:39.820Z,26.31
2018-07-11T11:17:11.147Z,24.42
2018-07-11T11:19:44.302Z,25.19
2018-07-11T11:22:16.272Z,25.00
2018-07-11T11:24:47.735Z,25.24
2018-07-11T11:27:17.680Z,25.51
2018-07-11T11:29:52.179Z,26.55
2018-07-11T11:32:25.592Z,25.55
2018-07-11T11:34:57.343Z,24.91
2018-07-11T11:37:32.416Z,24.80
2018-07-11T11:40:04.077Z,25.02
2018-07-11T11:42:36.910Z,24.69
2018-07-11T11:45:08.360Z,24.90
2018-07-11T11:47:42.190Z,24.65
2018-07-11T11:50:15.631Z,24.37
2018-07-11T11:52:48.776Z,25.58
2018-07-11T11:55:22.121Z,25.55
2018-07-11T11:57:54.541Z,25.05
2018-07-11T12:00:26.068Z,26.46
2018-07-11T12:02:59.010Z,25.69
2018-07-11T12:05:30.474Z,24.86
2018-07-11T12:08:04.944Z,25.38
2018-07-11T12:10:35.470Z,24.89
2018-07-11T12:13:06.940Z,25.01
2018-07-11T12:15:39.202Z,25.09
2018-07-11T12:18:12.075Z,25.63
2018-07-11T12:20:45.009Z,25.06
2018-07-11T12:23:16.008Z,24.92
2018-07-11T12:26:12.244Z,25.38
2018-07-11T12:28:44.597Z,25.42
2018-07-11T12:31:16.250Z,25.82
2018-07-11T12:33:49.186Z,25.88
2018-07-11T12:36:20.618Z,25.94
2018-07-11T12:38:58.312Z,26.14
2018-07-11T12:41:30.162Z,26.08
2018-07-11T12:44:03.254Z,26.20
2018-07-11T12:46:36.333Z,26.97
2018-07-11T12:49:09.574Z,26.67
2018-07-11T12:51:42.551Z,25.97
2018-07-11T12:54:15.791Z,25.03
2018-07-11T12:56:45.832Z,25.06
2018-07-11T12:59:20.685Z,24.54
2018-07-11T13:01:52.617Z,24.35
2018-07-11T13:04:27.876Z,23.84
2018-07-11T13:06:57.088Z,23.33
2018-07-11T13:09:31.871Z,22.85
2018-07-11T13:12:06.216Z,22.78
2018-07-11T13:14:39.375Z,22.70
2018-07-11T13:17:12.299Z,22.58
2018-07-11T13:19:43.805Z,22.59
2018-07-11T13:22:15.319Z,22.41
2018-07-11T13:24:47.163Z,22.59
2018-07-11T13:27:21.065Z,22.91
2018-07-11T13:29:54.133Z,23.22
2018-07-11T13:32:29.400Z,23.67
2018-07-11T13:34:59.414Z,23.74
2018-07-11T13:37:31.490Z,24.33
2018-07-11T13:40:02.850Z,24.13
2018-07-11T13:42:35.844Z,24.20
2018-07-11T13:45:10.273Z,23.87
2018-07-11T13:47:42.517Z,23.89
2018-07-11T13:50:15.668Z,24.43
2018-07-11T13:52:47.048Z,24.33
2018-07-11T13:55:19.975Z,24.50
2018-07-11T13:57:51.455Z,24.27
2018-07-11T14:00:24.616Z,24.51
2018-07-11T14:02:56.050Z,24.45
2018-07-11T14:05:26.048Z,24.32
2018-07-11T14:07:57.566Z,25.06
2018-07-11T14:10:27.956Z,25.20
2018-07-11T14:13:00.893Z,24.06
2018-07-11T14:15:32.708Z,23.97
2018-07-11T14:18:07.161Z,24.67
2018-07-11T14:20:38.576Z,24.58
2018-07-11T14:23:11.906Z,24.17
2018-07-11T14:25:46.154Z,24.09
2018-07-11T14:28:19.201Z,24.22
2018-07-11T14:30:52.085Z,23.79
2018-07-11T14:33:25.028Z,23.94
2018-07-11T14:35:56.373Z,25.05
2018-07-11T14:38:29.527Z,24.89
2018-07-11T14:41:02.991Z,25.38
2018-07-11T14:43:35.924Z,24.78
2018-07-11T14:46:08.782Z,24.16
2018-07-11T14:48:40.449Z,24.00
2018-07-11T14:51:12.074Z,24.24
2018-07-11T14:53:44.978Z,23.85
2018-07-11T14:56:18.613Z,24.01
2018-07-11T14:58:50.132Z,24.11
2018-07-11T15:01:21.606Z,23.96
2018-07-11T15:03:55.475Z,23.84
2018-07-11T15:06:28.296Z,24.14
2018-07-11T15:09:00.869Z,24.90
2018-07-11T15:11:32.222Z,24.78
2018-07-11T15:14:05.131Z,24.86
2018-07-11T15:16:39.305Z,25.15
2018-07-11T15:19:11.157Z,25.40
2018-07-11T15:21:42.621Z,25.60
2018-07-11T15:24:12.845Z,26.00
2018-07-11T15:26:45.110Z,25.51
2018-07-11T15:29:16.609Z,25.00
2018-07-11T15:31:46.596Z,24.52
2018-07-11T15:34:21.362Z,24.24
2018-07-11T15:36:51.347Z,24.08
2018-07-11T15:39:24.527Z,24.03
2018-07-11T15:41:54.974Z,24.01
2018-07-11T15:44:26.519Z,24.11
2018-07-11T15:47:01.347Z,24.19
2018-07-11T15:49:36.271Z,24.51
2018-07-11T15:52:09.273Z,24.18
2018-07-11T15:54:43.059Z,23.91
2018-07-11T15:57:17.268Z,24.33
2018-07-11T16:00:04.778Z,24.05
2018-07-11T16:02:40.643Z,24.10
2018-07-11T16:05:12.516Z,24.19
2018-07-11T16:07:52.484Z,23.89
2018-07-11T16:10:37.166Z,24.07
2018-07-11T16:13:11.818Z,24.09
2018-07-11T16:15:46.879Z,23.90
2018-07-11T16:18:17.009Z,23.78
2018-07-11T16:20:49.060Z,23.88
2018-07-11T16:23:24.743Z,23.73
2018-07-11T16:25:56.167Z,23.74
2018-07-11T16:28:31.072Z,23.89
2018-07-11T16:31:05.467Z,23.65
2018-07-11T16:33:36.563Z,23.53
2018-07-11T16:36:09.407Z,23.69
2018-07-11T16:38:40.978Z,23.83
2018-07-11T16:41:15.414Z,24.05
2018-07-11T16:43:47.190Z,23.89
2018-07-11T16:46:20.035Z,24.12
2018-07-11T16:48:52.875Z,24.17
2018-07-11T16:51:24.579Z,24.11
2018-07-11T16:53:56.110Z,24.15
2018-07-11T16:56:26.410Z,24.08
2018-07-11T16:59:04.070Z,23.73
2018-07-11T17:01:42.691Z,23.76
2018-07-11T17:04:14.901Z,24.07
2018-07-11T17:06:45.384Z,24.18
2018-07-11T17:09:16.833Z,23.95
2018-07-11T17:11:51.937Z,24.09
2018-07-11T17:14:26.026Z,23.98
2018-07-11T17:17:05.482Z,23.77
2018-07-11T17:20:16.414Z,23.67
2018-07-11T17:23:01.420Z,23.51
2018-07-11T17:25:45.870Z,23.71
2018-07-11T17:28:17.299Z,23.84
2018-07-11T17:30:48.797Z,23.79
2018-07-11T17:33:18.721Z,23.60
2018-07-11T17:35:56.834Z,23.58
2018-07-11T17:38:31.484Z,23.48
2018-07-11T17:41:07.922Z,23.43
2018-07-11T17:43:42.031Z,23.44
2018-07-11T17:46:19.546Z,23.31
2018-07-11T17:49:38.599Z,23.29
2018-07-11T17:52:15.731Z,23.37
2018-07-11T17:55:19.996Z,23.55
2018-07-11T17:58:02.334Z,23.38
2018-07-11T18:00:53.855Z,23.49
2018-07-11T18:03:51.442Z,23.42
2018-07-11T18:06:51.861Z,23.51
2018-07-11T18:09:26.794Z,23.63
2018-07-11T18:12:28.001Z,23.50
2018-07-11T18:15:15.233Z,23.53
2018-07-11T18:18:25.406Z,23.27
2018-07-11T18:21:34.301Z,23.23
2018-07-11T18:24:29.783Z,23.13
2018-07-11T18:27:30.267Z,23.05
2018-07-11T18:30:39.144Z,23.05
2018-07-11T18:33:53.701Z,22.72
2018-07-11T18:36:57.144Z,22.83
2018-07-11T18:39:42.851Z,22.94
2018-07-11T18:42:23.523Z,22.83
2018-07-11T18:45:26.352Z,22.50
2018-07-11T18:48:36.869Z,22.44
2018-07-11T18:51:45.182Z,22.38
2018-07-11T18:54:25.668Z,22.08
2018-07-11T18:57:09.667Z,22.11
2018-07-11T19:00:42.179Z,21.95
2018-07-11T19:03:57.456Z,21.87
2018-07-11T19:07:16.880Z,21.86
2018-07-11T19:09:58.348Z,21.88
2018-07-11T19:12:38.344Z,21.81
2018-07-11T19:15:19.522Z,21.73
2018-07-11T19:18:38.075Z,21.74
2018-07-11T19:21:20.403Z,21.50
2018-07-11T19:24:08.350Z,21.45
2018-07-11T19:27:03.219Z,21.45
2018-07-11T19:30:12.045Z,21.14
2018-07-11T19:32:58.677Z,21.06
2018-07-11T19:36:06.166Z,21.09
2018-07-11T19:38:44.095Z,20.96
2018-07-11T19:41:26.721Z,20.87
2018-07-11T19:44:48.560Z,20.82
2018-07-11T19:47:44.545Z,20.83
2018-07-11T19:50:42.262Z,20.80
2018-07-11T19:53:52.338Z,20.84
2018-07-11T19:56:43.822Z,20.61
2018-07-11T19:59:15.499Z,20.61
2018-07-11T20:01:47.711Z,20.61
2018-07-11T20:04:20.667Z,20.58
2018-07-11T20:06:55.016Z,20.40
2018-07-11T20:09:28.514Z,20.42
2018-07-11T20:12:01.807Z,20.41
2018-07-11T20:14:36.290Z,20.35
2018-07-11T20:17:10.905Z,20.29
2018-07-11T20:19:42.823Z,20.37
2018-07-11T20:22:14.897Z,20.21
2018-07-11T20:24:50.013Z,20.19
2018-07-11T20:27:23.191Z,20.18
2018-07-11T20:29:53.127Z,20.22
2018-07-11T20:32:23.292Z,20.24
2018-07-11T20:34:56.276Z,20.16
2018-07-11T20:37:29.312Z,20.20
2018-07-11T20:40:02.762Z,20.08
2018-07-11T20:42:35.864Z,20.14
2018-07-11T20:45:09.306Z,20.08
2018-07-11T20:47:42.879Z,20.10
2018-07-11T20:50:14.229Z,20.08
2018-07-11T20:52:47.108Z,20.20
2018-07-11T20:55:20.179Z,20.22
2018-07-11T20:57:51.513Z,20.11
2018-07-11T21:00:59.667Z,20.13
2018-07-11T21:04:14.230Z,19.99
2018-07-11T21:07:11.496Z,20.12
2018-07-11T21:10:15.912Z,20.08
2018-07-11T21:13:34.862Z,20.22
2018-07-11T21:16:28.759Z,20.23
2018-07-11T21:19:09.891Z,20.19
2018-07-11T21:21:44.060Z,20.05
2018-07-11T21:24:16.809Z,20.07
2018-07-11T21:26:50.816Z,20.04
2018-07-11T21:29:21.621Z,20.01
2018-07-11T21:31:53.198Z,19.99
2018-07-11T21:34:26.262Z,19.94
2018-07-11T21:36:57.867Z,19.87
2018-07-11T21:39:30.979Z,19.84
2018-07-11T21:42:04.139Z,19.80
2018-07-11T21:44:37.430Z,19.65
2018-07-11T21:47:10.574Z,19.66
2018-07-11T21:49:41.936Z,19.61
2018-07-11T21:52:13.372Z,19.57
2018-07-11T21:54:47.817Z,19.64
2018-07-11T21:57:19.350Z,19.60
2018-07-11T21:59:52.457Z,19.53
2018-07-11T22:02:22.508Z,19.56
2018-07-11T22:04:54.378Z,19.63
2018-07-11T22:07:28.616Z,19.60
2018-07-11T22:10:01.168Z,19.75
2018-07-11T22:12:35.695Z,19.73
2018-07-11T22:15:09.103Z,19.68
2018-07-11T22:18:33.586Z,19.52
2018-07-11T22:21:03.597Z,19.55
2018-07-11T22:23:33.481Z,19.39
2018-07-11T22:26:02.181Z,19.42
2018-07-11T22:28:32.380Z,19.59
2018-07-11T22:31:00.912Z,19.72
2018-07-11T22:33:29.269Z,19.65
2018-07-11T22:35:59.219Z,19.54
2018-07-11T22:38:28.981Z,19.53
2018-07-11T22:40:58.789Z,19.35
2018-07-11T22:43:27.706Z,19.35
2018-07-11T22:45:56.513Z,19.11
2018-07-11T22:48:26.307Z,19.02
2018-07-11T22:50:56.312Z,18.74
2018-07-11T22:53:25.420Z,18.73
2018-07-11T22:55:55.183Z,18.82
2018-07-11T22:58:25.034Z,18.68
2018-07-11T23:00:53.552Z,18.66
2018-07-11T23:03:22.013Z,18.64
2018-07-11T23:05:51.828Z,18.60
2018-07-11T23:08:21.963Z,18.59
2018-07-11T23:10:50.289Z,18.52
2018-07-11T23:13:20.205Z,18.42
2018-07-11T23:15:49.961Z,18.32
2018-07-11T23:18:18.429Z,18.28
2018-07-11T23:20:46.906Z,18.28
2018-07-11T23:23:17.034Z,18.30
2018-07-11T23:25:45.369Z,18.19
2018-07-11T23:28:15.281Z,18.22
2018-07-11T23:30:45.160Z,18.13
2018-07-11T23:33:14.980Z,18.21
2018-07-11T23:35:43.952Z,18.23
2018-07-11T23:38:13.768Z,18.14
2018-07-11T23:40:43.652Z,18.11
2018-07-11T23:43:14.050Z,18.11
2018-07-11T23:45:43.895Z,18.08
2018-07-11T23:48:12.253Z,18.01
2018-07-11T23:50:42.099Z,18.04
2018-07-11T23:53:11.078Z,17.88
2018-07-11T23:55:39.446Z,17.98
2018-07-11T23:58:08.415Z,17.96
